Time;durP1;ratioP1;P1;durP2;ratioP2;P2;SDS_P1;SDS_P2;PMS_P1;PMS_P2;Temp;Humidity;BMP_temperature;BMP_pressure;BME280_temperature;BME280_humidity;BME280_pressure;Samples;Min_cycle;Max_cycle;Signal;HPM_P1;HPM_P2
2023/03/16 00:01:07;;;;;;;10.83;7.57;;;;;;;10.56;54.47;95841.41;4893998;29;20259;-77
2023/03/16 00:04:29;;;;;;;8.33;6.57;;;;;;;10.55;54.18;95839.75;4897784;29;20195;-76
2023/03/16 00:07:50;;;;;;;10.87;6.57;;;;;;;10.47;54.91;95850.59;4894486;29;20672;-75
2023/03/16 00:11:11;;;;;;;11.67;6.23;;;;;;;10.47;54.56;95855.78;4897411;29;20226;-73
2023/03/16 00:14:34;;;;;;;11.30;6.87;;;;;;;10.43;54.95;95854.31;4897332;29;20268;-72
2023/03/16 00:17:55;;;;;;;12.33;6.20;;;;;;;10.36;55.41;95871.16;4901138;29;20204;-74
2023/03/16 00:21:31;;;;;;;8.90;6.00;;;;;;;10.31;55.49;95867.19;4896775;29;20288;-76
2023/03/16 00:24:51;;;;;;;12.07;7.03;;;;;;;10.26;56.06;95864.09;4894759;29;20195;-78
2023/03/16 00:28:12;;;;;;;9.10;6.00;;;;;;;10.09;56.22;95849.59;4877755;29;20192;-73
2023/03/16 00:31:33;;;;;;;9.43;6.40;;;;;;;10.26;56.59;95864.09;4894013;29;20715;-79
2023/03/16 00:34:54;;;;;;;11.33;6.20;;;;;;;10.28;56.61;95864.81;4894122;29;20291;-78
2023/03/16 00:38:15;;;;;;;14.43;6.90;;;;;;;10.23;57.12;95867.69;4896258;29;20197;-74
2023/03/16 00:41:36;;;;;;;9.90;6.30;;;;;;;10.18;57.22;95866.31;4894092;29;20202;-81
2023/03/16 00:44:57;;;;;;;10.60;6.13;;;;;;;10.17;57.64;95875.84;4895435;29;20197;-77
2023/03/16 00:48:20;;;;;;;9.03;6.43;;;;;;;10.20;57.29;95870.44;4876430;29;20199;-73
2023/03/16 00:51:45;;;;;;;11.50;6.63;;;;;;;10.09;57.82;95877.22;4893642;29;20225;-76
2023/03/16 00:55:05;;;;;;;8.13;6.30;;;;;;;10.16;58.16;95875.94;4894910;29;20279;-75
2023/03/16 00:58:26;;;;;;;8.20;6.30;;;;;;;10.16;58.22;95873.34;4896085;29;20200;-73
2023/03/16 01:01:46;;;;;;;10.07;6.47;;;;;;;10.19;58.36;95867.97;4897442;29;20197;-73
2023/03/16 01:05:08;;;;;;;10.40;7.03;;;;;;;10.10;58.44;95860.78;4899005;29;20204;-83
2023/03/16 01:08:31;;;;;;;10.07;6.97;;;;;;;10.11;58.45;95880.56;4899095;29;20199;-74
2023/03/16 01:11:53;;;;;;;10.07;6.40;;;;;;;10.13;58.57;95881.28;4878505;29;20192;-74
2023/03/16 01:15:14;;;;;;;11.03;7.40;;;;;;;10.05;59.53;95884.34;4894025;29;20758;-73
2023/03/16 01:18:34;;;;;;;10.37;7.23;;;;;;;10.04;59.05;95885.25;4894183;29;20230;-74
2023/03/16 01:21:55;;;;;;;10.10;7.37;;;;;;;10.02;59.53;95887.09;4893161;29;20718;-78
2023/03/16 01:25:17;;;;;;;11.57;7.33;;;;;;;9.87;60.15;95893.19;4892019;29;20681;-83
2023/03/16 01:28:37;;;;;;;10.53;7.80;;;;;;;9.90;60.17;95887.00;4894334;29;20626;-74
2023/03/16 01:31:58;;;;;;;9.83;7.03;;;;;;;9.85;60.24;95875.19;4892496;29;20191;-83
2023/03/16 01:35:20;;;;;;;10.53;7.33;;;;;;;9.87;60.59;95889.81;4875387;29;20693;-83
2023/03/16 01:38:42;;;;;;;10.50;7.43;;;;;;;9.78;60.79;95898.94;4875700;29;20219;-82
2023/03/16 01:42:05;;;;;;;12.93;8.10;;;;;;;9.83;60.84;95887.41;4892006;29;20195;-82
2023/03/16 01:45:28;;;;;;;11.40;7.53;;;;;;;9.74;61.50;95893.16;4843600;29;20196;-81
2023/03/16 01:48:55;;;;;;;14.50;7.83;;;;;;;9.74;61.04;95893.16;4873895;29;20622;-81
2023/03/16 01:51:49;;;;;;;9.77;7.97;;;;;;;9.74;60.99;95898.31;4872308;29;20208;-81
2023/03/16 01:55:12;;;;;;;10.90;7.50;;;;;;;9.72;60.86;95900.16;4858240;29;20192;-82
2023/03/16 01:58:32;;;;;;;11.43;7.30;;;;;;;9.74;61.42;95900.91;4880352;29;20259;-73
2023/03/16 02:01:53;;;;;;;10.37;7.90;;;;;;;9.75;62.31;95901.72;4862084;29;20195;-74
2023/03/16 02:05:17;;;;;;;10.90;8.17;;;;;;;9.54;62.51;95893.50;4858443;29;20198;-72
2023/03/16 02:08:39;;;;;;;14.33;9.20;;;;;;;9.58;63.99;95907.88;4862342;29;20192;-74
2023/03/16 02:12:00;;;;;;;12.70;8.33;;;;;;;9.55;64.02;95905.50;4858555;29;20204;-76
2023/03/16 02:15:21;;;;;;;10.73;7.67;;;;;;;9.46;65.00;95918.16;4859360;29;20324;-75
2023/03/16 02:19:02;;;;;;;11.10;8.27;;;;;;;9.35;65.79;95933.44;4874013;29;20208;-76
2023/03/16 02:21:48;;;;;;;11.30;8.03;;;;;;;9.27;66.06;95931.31;4856983;29;20227;-74
2023/03/16 02:25:10;;;;;;;11.80;8.37;;;;;;;9.30;66.45;95938.03;4857306;29;20196;-76
2023/03/16 02:28:03;;;;;;;11.53;8.43;;;;;;;9.24;66.61;95934.06;4856514;29;20680;-73
2023/03/16 02:31:24;;;;;;;11.87;8.57;;;;;;;9.14;66.77;95932.09;4856721;29;20608;-75
2023/03/16 02:34:45;;;;;;;15.53;9.13;;;;;;;9.07;67.02;95944.53;4856858;29;20259;-78
2023/03/16 02:38:06;;;;;;;11.60;7.57;;;;;;;9.08;67.53;95961.72;4856703;29;20279;-80
2023/03/16 02:41:36;;;;;;;10.10;8.27;;;;;;;9.05;67.77;95959.28;4856141;29;20287;-73
2023/03/16 02:44:58;;;;;;;12.20;8.90;;;;;;;8.96;67.35;95975.31;4873760;29;20663;-77
2023/03/16 02:48:21;;;;;;;13.10;9.03;;;;;;;8.93;68.11;95970.31;4856133;29;20200;-76
2023/03/16 02:51:41;;;;;;;12.47;8.33;;;;;;;8.52;67.58;95902.13;4857260;29;20672;-73
2023/03/16 02:55:02;;;;;;;10.77;8.17;;;;;;;8.85;68.26;95951.84;4856739;29;20211;-74
2023/03/16 02:58:25;;;;;;;13.63;8.83;;;;;;;8.88;68.29;95959.44;4856655;29;20211;-75
2023/03/16 03:01:51;;;;;;;13.80;8.97;;;;;;;8.84;69.22;95956.16;4856575;29;20196;-72
2023/03/16 03:05:11;;;;;;;14.13;8.47;;;;;;;8.64;69.41;95963.34;4873087;29;20192;-73
2023/03/16 03:08:32;;;;;;;13.03;9.57;;;;;;;8.54;70.71;95957.88;4842190;29;20294;-75
2023/03/16 03:11:53;;;;;;;14.57;10.70;;;;;;;8.44;71.78;95956.72;4855897;29;20210;-76
2023/03/16 03:15:13;;;;;;;13.37;9.13;;;;;;;8.40;73.10;95955.22;4872133;29;20246;-77
2023/03/16 03:18:45;;;;;;;19.43;12.57;;;;;;;8.33;73.08;95953.03;4868186;29;20204;-75
2023/03/16 03:22:09;;;;;;;14.53;10.10;;;;;;;8.36;74.56;95952.88;4856307;29;20945;-74
2023/03/16 03:25:33;;;;;;;15.43;9.57;;;;;;;8.37;74.51;95962.28;4872415;29;20211;-74
2023/03/16 03:28:55;;;;;;;14.50;10.57;;;;;;;8.39;74.49;95956.13;4859116;29;20211;-75
2023/03/16 03:32:17;;;;;;;13.23;9.67;;;;;;;8.46;73.28;95960.06;4864459;29;20639;-74
2023/03/16 03:35:38;;;;;;;12.70;9.40;;;;;;;8.48;73.86;95960.78;4858961;29;20645;-73
2023/03/16 03:38:58;;;;;;;13.03;9.33;;;;;;;8.43;74.00;95961.97;4875152;29;20282;-74
2023/03/16 03:42:22;;;;;;;11.83;9.17;;;;;;;8.39;73.84;95968.22;4874188;29;20205;-77
2023/03/16 03:45:44;;;;;;;13.53;8.80;;;;;;;8.40;73.24;95972.44;4873952;29;20187;-74
2023/03/16 03:49:05;;;;;;;12.00;7.80;;;;;;;8.46;72.74;95972.13;4874522;29;20698;-73
2023/03/16 03:52:28;;;;;;;8.87;7.23;;;;;;;8.49;72.51;95979.69;4894117;29;20187;-77
2023/03/16 03:55:49;;;;;;;11.00;7.37;;;;;;;8.55;72.25;95987.91;4879999;29;20279;-73
2023/03/16 03:59:10;;;;;;;30.17;16.03;;;;;;;8.51;72.39;95983.03;4861963;29;20628;-76
2023/03/16 04:02:50;;;;;;;30.93;18.93;;;;;;;8.45;72.73;95983.38;4894167;29;20235;-73
2023/03/16 04:06:17;;;;;;;27.90;16.33;;;;;;;8.50;71.46;96000.25;4893951;29;20225;-73
2023/03/16 04:09:38;;;;;;;11.33;7.87;;;;;;;8.27;70.97;95954.22;4894164;29;20262;-73
2023/03/16 04:13:05;;;;;;;11.83;10.17;;;;;;;8.49;71.62;95997.75;4893725;29;20192;-78
2023/03/16 04:16:27;;;;;;;4.67;3.90;;;;;;;8.46;71.20;96001.31;4876232;29;20199;-76
2023/03/16 04:19:50;;;;;;;7.90;5.33;;;;;;;8.49;71.41;96005.50;4858075;29;20207;-79
2023/03/16 04:23:12;;;;;;;4.80;3.60;;;;;;;8.38;71.33;96007.81;4868159;29;20285;-77
2023/03/16 04:26:33;;;;;;;5.03;3.60;;;;;;;8.38;71.14;96010.38;4896675;29;20393;-79
2023/03/16 04:29:58;;;;;;;6.10;3.80;;;;;;;8.36;71.20;96017.38;4912802;29;20226;-81
2023/03/16 04:33:24;;;;;;;7.00;4.97;;;;;;;8.27;71.80;96035.91;4875517;29;20285;-79
2023/03/16 04:36:45;;;;;;;7.20;4.70;;;;;;;8.20;70.83;96040.56;4870833;29;20194;-74
2023/03/16 04:40:15;;;;;;;5.87;3.23;;;;;;;8.15;70.33;96053.69;4876754;29;20199;-74
2023/03/16 04:43:45;;;;;;;5.47;3.73;;;;;;;8.04;71.59;96037.06;4884899;29;20205;-76
2023/03/16 04:47:07;;;;;;;5.17;3.80;;;;;;;7.91;70.96;96026.56;4883061;29;20680;-76
2023/03/16 04:50:27;;;;;;;6.33;4.07;;;;;;;7.93;70.99;96047.94;4909369;29;20317;-76
2023/03/16 04:53:48;;;;;;;5.60;3.80;;;;;;;7.86;72.39;96051.75;4895900;29;20195;-80
2023/03/16 04:57:17;;;;;;;8.77;4.87;;;;;;;7.81;71.22;96051.16;4895890;29;20690;-73
2023/03/16 05:00:39;;;;;;;6.43;4.40;;;;;;;7.78;71.31;96043.59;4895063;29;20237;-77
2023/03/16 05:04:04;;;;;;;5.87;4.77;;;;;;;7.82;71.99;96055.41;4895923;29;20194;-74
2023/03/16 05:07:25;;;;;;;7.37;5.03;;;;;;;7.94;70.64;96080.56;4885622;29;20235;-78
2023/03/16 05:10:47;;;;;;;6.70;4.80;;;;;;;7.95;70.75;96060.78;4894334;29;20648;-72
2023/03/16 05:14:12;;;;;;;5.90;4.57;;;;;;;7.99;69.68;96057.97;4887560;29;20237;-73
2023/03/16 05:17:56;;;;;;;7.00;5.07;;;;;;;8.04;69.88;96066.28;4885568;29;20234;-77
2023/03/16 05:21:17;;;;;;;7.77;5.47;;;;;;;8.06;69.24;96069.59;4880206;29;20206;-82
2023/03/16 05:24:42;;;;;;;7.93;6.07;;;;;;;8.10;68.90;96065.97;4878343;29;20684;-80
2023/03/16 05:28:04;;;;;;;6.60;5.33;;;;;;;8.07;69.53;96091.91;4876738;29;20675;-81
2023/03/16 05:31:37;;;;;;;7.57;4.80;;;;;;;8.01;69.38;96076.75;4876443;29;20722;-76
2023/03/16 05:35:02;;;;;;;8.33;5.07;;;;;;;7.99;69.67;96065.69;4879054;29;20206;-73
2023/03/16 05:38:23;;;;;;;7.93;5.63;;;;;;;7.87;69.94;96066.28;4876172;29;20191;-76
2023/03/16 05:41:47;;;;;;;7.33;5.23;;;;;;;7.72;69.89;96059.34;4875551;29;20805;-78
2023/03/16 05:45:26;;;;;;;7.97;5.67;;;;;;;7.75;70.67;96079.00;4877077;29;20259;-79
2023/03/16 05:48:51;;;;;;;8.33;5.93;;;;;;;7.95;70.70;96102.00;4876123;29;20918;-79
2023/03/16 05:52:12;;;;;;;10.33;6.40;;;;;;;7.92;70.59;96107.31;4874942;29;20214;-81
2023/03/16 05:55:35;;;;;;;10.40;6.33;;;;;;;7.90;70.73;96109.97;4875060;29;20577;-81
2023/03/16 05:58:56;;;;;;;8.13;5.57;;;;;;;7.68;70.81;96075.88;4891462;29;20199;-81
2023/03/16 06:02:16;;;;;;;8.23;5.93;;;;;;;7.80;70.94;96121.66;4875047;29;20778;-79
2023/03/16 06:05:37;;;;;;;7.33;5.87;;;;;;;7.80;70.45;96124.22;4874894;29;20199;-80
2023/03/16 06:09:06;;;;;;;8.50;5.53;;;;;;;7.86;71.24;96126.50;4875502;29;20575;-75
2023/03/16 06:12:27;;;;;;;8.77;5.20;;;;;;;7.81;70.70;96131.03;4874302;29;20201;-74
2023/03/16 06:15:48;;;;;;;8.53;5.63;;;;;;;7.76;71.08;96134.75;4858762;29;20600;-74
2023/03/16 06:19:09;;;;;;;8.17;5.00;;;;;;;7.68;70.03;96142.03;4891015;29;20266;-76
2023/03/16 06:22:16;;;;;;;6.53;4.30;;;;;;;7.60;71.23;96149.31;4886415;29;20203;-74
2023/03/16 06:24:44;;;;;;;8.20;5.43;;;;;;;7.66;71.35;96147.28;4877851;29;20205;-75
2023/03/16 06:27:13;;;;;;;6.87;5.10;;;;;;;7.72;70.27;96152.13;4860005;29;20199;-80
2023/03/16 06:29:57;;;;;;;7.23;4.97;;;;;;;7.54;69.38;96154.75;4859782;29;20239;-81
2023/03/16 06:32:24;;;;;;;7.10;4.33;;;;;;;7.60;70.16;96157.88;4875322;29;20246;-78
2023/03/16 06:34:53;;;;;;;6.70;4.90;;;;;;;7.66;69.85;96169.63;4876582;29;20206;-77
2023/03/16 06:37:20;;;;;;;6.63;4.87;;;;;;;7.68;70.20;96155.75;4896107;29;20632;-81
2023/03/16 06:39:48;;;;;;;6.00;4.77;;;;;;;7.69;69.06;96159.16;4891603;29;20210;-76
2023/03/16 06:42:15;;;;;;;6.83;4.67;;;;;;;7.80;68.72;96142.28;4891981;29;20197;-83
2023/03/16 06:44:43;;;;;;;5.73;4.33;;;;;;;7.96;68.01;96160.38;4890908;29;20276;-84
2023/03/16 06:47:12;;;;;;;5.40;4.27;;;;;;;7.97;68.27;96172.38;4891028;29;20214;-79
2023/03/16 06:49:39;;;;;;;6.70;4.93;;;;;;;7.98;66.50;96164.56;4890802;29;20223;-79
2023/03/16 06:52:14;;;;;;;5.90;4.50;;;;;;;8.12;66.35;96175.00;4891861;29;20281;-83
2023/03/16 06:54:41;;;;;;;8.77;4.27;;;;;;;8.16;66.49;96178.28;4890298;29;20770;-83
2023/03/16 06:57:09;;;;;;;6.00;5.17;;;;;;;8.10;65.79;96179.41;4875522;29;20572;-82
2023/03/16 06:59:36;;;;;;;6.47;4.47;;;;;;;8.14;66.46;96186.09;4891415;29;20766;-77
2023/03/16 07:02:03;;;;;;;7.40;4.20;;;;;;;8.32;66.17;96191.28;4891864;29;20247;-80
2023/03/16 07:04:30;;;;;;;6.20;4.50;;;;;;;8.30;66.18;96191.34;4874736;29;20277;-81
2023/03/16 07:06:57;;;;;;;7.10;4.97;;;;;;;8.29;66.18;96189.69;4891234;29;20203;-76
2023/03/16 07:09:26;;;;;;;5.67;4.13;;;;;;;8.27;65.57;96193.22;4859295;29;20236;-79
2023/03/16 07:11:53;;;;;;;6.60;4.40;;;;;;;8.38;64.65;96207.28;4874332;29;20215;-77
2023/03/16 07:14:22;;;;;;;6.07;4.63;;;;;;;8.35;65.21;96209.16;4892175;29;20235;-79
2023/03/16 07:16:52;;;;;;;6.50;4.40;;;;;;;8.36;66.06;96210.84;4874322;29;20211;-75
2023/03/16 07:19:21;;;;;;;7.67;4.70;;;;;;;8.17;65.48;96188.53;4874596;29;20725;-80
2023/03/16 07:21:49;;;;;;;6.30;4.50;;;;;;;8.23;65.22;96203.69;4874393;29;20200;-79
2023/03/16 07:24:19;;;;;;;7.70;4.30;;;;;;;8.32;64.95;96214.50;4888132;29;20237;-74
2023/03/16 07:26:46;;;;;;;6.20;4.20;;;;;;;8.33;64.83;96214.41;4911725;29;20229;-78
2023/03/16 07:29:22;;;;;;;6.20;4.57;;;;;;;8.32;64.30;96204.16;4897295;29;20190;-75
2023/03/16 07:31:49;;;;;;;8.37;4.60;;;;;;;8.26;64.49;96209.63;4897591;29;20202;-81
2023/03/16 07:34:20;;;;;;;7.17;4.20;;;;;;;8.32;64.68;96207.59;4896721;29;20209;-79
2023/03/16 07:36:52;;;;;;;6.80;4.37;;;;;;;8.46;64.17;96235.25;4897459;29;20204;-78
2023/03/16 07:39:22;;;;;;;7.83;4.63;;;;;;;8.42;63.95;96231.16;4899148;29;20223;-74
2023/03/16 07:41:53;;;;;;;8.40;4.93;;;;;;;8.50;64.28;96234.19;4883809;29;20313;-83
2023/03/16 07:44:35;;;;;;;6.93;3.83;;;;;;;8.41;63.82;96238.06;4898051;29;20229;-83
2023/03/16 07:47:03;;;;;;;8.90;4.67;;;;;;;8.37;64.54;96233.13;4897961;29;20195;-81
2023/03/16 07:49:30;;;;;;;9.63;4.70;;;;;;;8.10;64.26;96200.03;4898499;29;20293;-83
2023/03/16 07:52:00;;;;;;;7.53;4.80;;;;;;;8.34;64.13;96236.72;4898319;29;20191;-76
2023/03/16 07:54:35;;;;;;;6.23;4.10;;;;;;;8.12;64.40;96242.06;4898221;29;20198;-80
2023/03/16 07:57:05;;;;;;;9.23;5.67;;;;;;;8.08;64.64;96242.28;4899843;29;20191;-82
2023/03/16 07:59:37;;;;;;;7.87;4.23;;;;;;;8.16;64.25;96245.34;4893765;29;20199;-83
2023/03/16 08:02:12;;;;;;;8.10;4.77;;;;;;;8.15;64.28;96244.50;4894509;29;20190;-79
2023/03/16 08:04:43;;;;;;;7.20;4.80;;;;;;;8.11;64.31;96252.44;4894052;29;20191;-77
2023/03/16 08:07:14;;;;;;;5.50;4.27;;;;;;;8.13;64.54;96261.78;4894495;29;20213;-76
2023/03/16 08:09:52;;;;;;;10.10;6.63;;;;;;;8.14;63.77;96240.22;4892872;29;20736;-79
2023/03/16 08:12:25;;;;;;;11.63;5.97;;;;;;;8.38;63.76;96258.03;4893219;29;20284;-80
2023/03/16 08:14:53;;;;;;;9.67;5.87;;;;;;;8.31;64.21;96236.00;4896466;29;20696;-78
2023/03/16 08:17:25;;;;;;;12.10;6.50;;;;;;;8.50;63.15;96257.41;4892839;29;20233;-79
2023/03/16 08:19:53;;;;;;;6.60;4.37;;;;;;;8.39;62.86;96273.44;4908892;29;20271;-78
2023/03/16 08:22:21;;;;;;;8.53;5.77;;;;;;;8.21;63.84;96258.81;4893426;29;20199;-78
2023/03/16 08:24:49;;;;;;;9.20;6.30;;;;;;;8.29;63.91;96277.38;4878857;29;20203;-75
2023/03/16 08:27:18;;;;;;;9.93;5.90;;;;;;;8.35;63.77;96286.53;4910838;29;20710;-75
2023/03/16 08:29:52;;;;;;;6.80;5.30;;;;;;;8.33;63.26;96262.56;4914806;29;20222;-75
2023/03/16 08:32:22;;;;;;;13.37;6.30;;;;;;;8.66;63.38;96277.22;4894979;29;20187;-80
2023/03/16 08:34:51;;;;;;;9.30;5.60;;;;;;;8.67;62.65;96298.72;4896558;29;20207;-79
2023/03/16 08:37:18;;;;;;;6.60;4.53;;;;;;;8.66;62.33;96289.28;4883863;29;20286;-75
2023/03/16 08:39:50;;;;;;;6.97;4.03;;;;;;;8.71;62.07;96295.06;4880243;29;20203;-74
2023/03/16 08:42:18;;;;;;;5.60;4.20;;;;;;;8.66;62.18;96286.69;4877185;29;20210;-77
2023/03/16 08:44:53;;;;;;;5.37;4.20;;;;;;;8.68;61.93;96300.34;4877307;29;20194;-78
2023/03/16 08:47:21;;;;;;;5.27;4.00;;;;;;;8.63;62.49;96289.44;4877665;29;20699;-77
2023/03/16 08:49:49;;;;;;;7.17;4.80;;;;;;;8.87;62.29;96298.53;4862179;29;20714;-82
2023/03/16 08:52:18;;;;;;;9.53;4.30;;;;;;;8.92;61.31;96299.94;4877701;29;20194;-77
2023/03/16 08:54:44;;;;;;;4.27;3.60;;;;;;;8.75;61.92;96317.22;4894185;29;20193;-79
2023/03/16 08:57:29;;;;;;;6.13;4.40;;;;;;;8.75;61.47;96300.00;4894711;29;20207;-78
2023/03/16 08:59:56;;;;;;;6.27;4.07;;;;;;;8.94;61.29;96320.56;4894479;29;20687;-79
2023/03/16 09:02:24;;;;;;;4.97;3.40;;;;;;;9.04;61.63;96316.59;4895481;29;20252;-75
2023/03/16 09:04:51;;;;;;;13.73;3.83;;;;;;;8.99;60.94;96311.66;4893780;29;20195;-80
2023/03/16 09:07:19;;;;;;;4.10;3.13;;;;;;;8.99;60.88;96326.31;4896935;29;20199;-79
2023/03/16 09:09:46;;;;;;;4.00;3.20;;;;;;;8.86;60.94;96310.59;4862236;29;20275;-77
2023/03/16 09:12:13;;;;;;;4.60;3.10;;;;;;;8.71;62.14;96316.56;4894746;29;20210;-78
2023/03/16 09:14:40;;;;;;;3.67;2.93;;;;;;;8.71;62.53;96315.72;4876868;29;20310;-75
2023/03/16 09:17:07;;;;;;;3.27;2.90;;;;;;;8.71;61.11;96303.66;4876444;29;20212;-77
2023/03/16 09:19:34;;;;;;;4.00;2.93;;;;;;;8.60;61.64;96297.34;4893636;29;20293;-78
2023/03/16 09:22:21;;;;;;;3.70;2.40;;;;;;;8.74;62.01;96331.03;4893704;29;20191;-80
2023/03/16 09:24:48;;;;;;;3.67;3.00;;;;;;;8.47;61.33;96294.53;4893719;29;20683;-78
2023/03/16 09:27:16;;;;;;;3.57;2.43;;;;;;;8.38;63.10;96338.00;4877490;29;20275;-75
2023/03/16 09:29:44;;;;;;;3.37;2.17;;;;;;;8.42;62.23;96335.22;4894139;29;20237;-74
2023/03/16 09:32:11;;;;;;;4.07;2.57;;;;;;;8.48;62.88;96327.16;4894879;29;20227;-78
2023/03/16 09:34:39;;;;;;;4.00;2.80;;;;;;;8.53;62.57;96343.25;4894450;29;20200;-79
2023/03/16 09:37:06;;;;;;;2.97;2.47;;;;;;;8.45;62.37;96331.66;4892997;29;20680;-75
2023/03/16 09:39:33;;;;;;;4.37;2.67;;;;;;;8.38;62.07;96331.09;4894036;29;20274;-80
2023/03/16 09:42:21;;;;;;;3.87;2.57;;;;;;;8.30;62.89;96360.75;4894582;29;20195;-76
2023/03/16 09:45:17;;;;;;;3.40;2.90;;;;;;;8.36;61.86;96340.66;4876408;29;20207;-78
2023/03/16 09:47:49;;;;;;;3.07;2.53;;;;;;;8.42;61.54;96316.31;4892888;29;20281;-81
2023/03/16 09:50:24;;;;;;;2.90;2.00;;;;;;;8.55;61.64;96340.59;4898158;29;20231;-73
2023/03/16 09:53:10;;;;;;;4.00;2.37;;;;;;;8.49;62.26;96346.88;4899524;29;20222;-79
2023/03/16 09:55:41;;;;;;;3.07;2.37;;;;;;;8.35;61.30;96345.88;4899950;29;20263;-75
2023/03/16 09:58:17;;;;;;;4.10;2.03;;;;;;;8.11;62.30;96311.75;4898853;29;20199;-79
2023/03/16 10:01:15;;;;;;;3.87;3.33;;;;;;;8.43;62.06;96343.78;4896514;29;20233;-78
2023/03/16 10:04:18;;;;;;;3.37;2.50;;;;;;;8.39;61.72;96344.84;4878023;29;20239;-81
2023/03/16 10:07:01;;;;;;;1.80;1.67;;;;;;;8.36;62.10;96360.47;4872116;29;20289;-79
2023/03/16 10:09:37;;;;;;;2.13;1.70;;;;;;;8.27;62.23;96354.00;4893237;29;20602;-76
2023/03/16 10:12:06;;;;;;;2.57;2.17;;;;;;;8.50;61.79;96358.03;4893709;29;20304;-76
2023/03/16 10:15:03;;;;;;;3.30;2.00;;;;;;;8.56;60.79;96374.06;4892627;29;20231;-80
2023/03/16 10:17:56;;;;;;;2.73;2.20;;;;;;;8.60;59.91;96369.59;4860637;29;20750;-74
2023/03/16 10:20:26;;;;;;;2.27;2.07;;;;;;;8.60;59.98;96361.84;4882860;29;20593;-75
2023/03/16 10:22:54;;;;;;;3.17;2.23;;;;;;;8.56;60.51;96350.00;4898977;29;20680;-77
2023/03/16 10:25:29;;;;;;;3.33;2.03;;;;;;;8.52;60.44;96353.66;4897479;29;20297;-75
2023/03/16 10:27:56;;;;;;;2.40;1.93;;;;;;;8.55;60.68;96351.75;4893165;29;20262;-78
2023/03/16 10:30:26;;;;;;;4.07;2.50;;;;;;;8.54;61.08;96364.72;4894185;29;20282;-74
2023/03/16 10:33:27;;;;;;;3.00;1.80;;;;;;;8.55;60.68;96371.56;4894983;29;20191;-76
2023/03/16 10:36:00;;;;;;;2.67;1.90;;;;;;;8.54;60.51;96368.16;4880565;29;20195;-76
2023/03/16 10:38:31;;;;;;;4.27;2.10;;;;;;;8.46;61.82;96374.59;4881539;29;20244;-76
2023/03/16 10:40:59;;;;;;;2.43;2.23;;;;;;;8.51;61.43;96370.06;4897966;29;20565;-76
2023/03/16 10:43:28;;;;;;;4.17;2.73;;;;;;;8.63;61.20;96361.72;4897377;29;20206;-73
2023/03/16 10:46:01;;;;;;;2.40;1.90;;;;;;;8.60;60.60;96360.09;4895607;29;20286;-79
2023/03/16 10:48:32;;;;;;;2.47;2.10;;;;;;;8.82;60.21;96370.22;4892996;29;20566;-75
2023/03/16 10:51:06;;;;;;;2.70;1.97;;;;;;;8.61;61.20;96366.09;4895185;29;20620;-77
2023/03/16 10:53:37;;;;;;;3.20;1.90;;;;;;;8.48;60.54;96350.38;4896025;29;20188;-74
2023/03/16 10:56:24;;;;;;;3.23;1.70;;;;;;;8.56;60.43;96370.66;4879817;29;20210;-79
2023/03/16 10:58:51;;;;;;;2.50;1.63;;;;;;;8.36;60.65;96350.97;4896891;29;20191;-77
2023/03/16 11:01:23;;;;;;;2.47;1.90;;;;;;;8.50;60.36;96363.19;4891632;29;20659;-79
2023/03/16 11:03:53;;;;;;;3.33;2.53;;;;;;;8.56;60.52;96365.47;4892976;29;20218;-75
2023/03/16 11:06:29;;;;;;;3.97;2.43;;;;;;;8.60;60.88;96377.34;4891723;29;20206;-75
2023/03/16 11:09:22;;;;;;;2.63;1.90;;;;;;;8.59;60.35;96373.09;4892590;29;20205;-83
2023/03/16 11:11:50;;;;;;;2.70;1.97;;;;;;;8.55;60.67;96376.72;4896170;29;20238;-78
2023/03/16 11:14:21;;;;;;;2.43;1.90;;;;;;;8.46;60.75;96393.50;4893518;29;20870;-80
2023/03/16 11:17:11;;;;;;;2.50;1.90;;;;;;;8.47;60.22;96384.81;4892258;29;20982;-77
2023/03/16 11:19:53;;;;;;;4.43;2.57;;;;;;;8.59;59.84;96378.25;4900003;29;20202;-80
2023/03/16 11:22:24;;;;;;;3.20;2.50;;;;;;;8.79;60.16;96375.53;4910955;29;20217;-76
2023/03/16 11:24:59;;;;;;;3.87;2.27;;;;;;;8.84;59.61;96374.38;4910838;29;20186;-80
2023/03/16 11:27:39;;;;;;;3.50;2.63;;;;;;;8.42;59.44;96339.53;4913601;29;20198;-80
2023/03/16 11:30:22;;;;;;;3.53;2.53;;;;;;;8.66;60.39;96379.59;4910477;29;20194;-78
2023/03/16 11:32:52;;;;;;;4.20;3.17;;;;;;;8.78;59.75;96389.31;4893654;29;20191;-78
2023/03/16 11:35:26;;;;;;;3.53;3.00;;;;;;;9.00;59.49;96383.03;4912863;29;20197;-76
2023/03/16 11:38:17;;;;;;;2.77;2.50;;;;;;;9.15;58.62;96391.75;4913650;29;20221;-76
2023/03/16 11:41:16;;;;;;;3.00;2.60;;;;;;;9.13;58.86;96385.84;4912478;29;20310;-74
2023/03/16 11:43:49;;;;;;;5.03;2.80;;;;;;;8.98;58.55;96373.72;4913501;29;20211;-74
2023/03/16 11:46:39;;;;;;;2.93;2.30;;;;;;;9.14;58.42;96379.78;4918861;29;20199;-77
2023/03/16 11:49:38;;;;;;;3.90;3.13;;;;;;;9.35;57.62;96395.94;4914644;29;20193;-74
2023/03/16 11:52:34;;;;;;;3.97;2.53;;;;;;;9.28;57.95;96392.81;4917094;29;20240;-75
2023/03/16 11:55:17;;;;;;;4.80;1.90;;;;;;;9.01;57.54;96396.78;4886567;29;20619;-77
2023/03/16 11:58:06;;;;;;;3.63;2.53;;;;;;;9.03;58.30;96390.63;4916746;29;20204;-74
2023/03/16 12:01:03;;;;;;;3.80;3.03;;;;;;;9.11;58.05;96381.69;4914473;29;20218;-79
2023/03/16 12:04:00;;;;;;;2.67;2.10;;;;;;;9.10;57.59;96401.50;4916542;29;20210;-78
2023/03/16 12:06:42;;;;;;;5.27;2.40;;;;;;;9.13;57.70;96395.34;4864223;29;20227;-77
2023/03/16 12:09:57;;;;;;;4.70;2.50;;;;;;;8.70;58.33;96381.13;4916254;29;20270;-83
2023/03/16 12:12:42;;;;;;;3.03;2.30;;;;;;;8.65;58.75;96396.03;4911277;29;20329;-76
2023/03/16 12:15:29;;;;;;;3.00;2.40;;;;;;;8.85;57.90;96406.19;4917206;29;20273;-82
2023/03/16 12:18:08;;;;;;;3.37;2.47;;;;;;;8.70;57.61;96394.03;4917712;29;20289;-81
2023/03/16 12:21:00;;;;;;;4.87;2.50;;;;;;;8.71;57.68;96418.94;4922697;29;20571;-80
2023/03/16 12:23:47;;;;;;;2.80;2.20;;;;;;;8.60;58.63;96416.03;4920895;29;20202;-79
2023/03/16 12:26:16;;;;;;;3.67;2.47;;;;;;;8.43;58.61;96392.81;4918954;29;20203;-75
2023/03/16 12:28:44;;;;;;;5.10;2.60;;;;;;;8.58;58.51;96415.28;4921488;29;20199;-78
2023/03/16 12:31:22;;;;;;;4.13;2.93;;;;;;;8.50;59.20;96419.97;4920360;29;20257;-81
2023/03/16 12:34:12;;;;;;;3.20;2.60;;;;;;;8.62;58.63;96419.38;4919283;29;20198;-76
2023/03/16 12:36:51;;;;;;;2.57;2.23;;;;;;;8.36;59.64;96412.91;4917532;29;20199;-77
2023/03/16 12:39:48;;;;;;;3.50;2.13;;;;;;;8.35;58.90;96425.84;4917608;29;20194;-78
2023/03/16 12:42:47;;;;;;;3.50;2.60;;;;;;;8.35;58.99;96406.03;4918561;29;20205;-77
2023/03/16 12:45:42;;;;;;;3.00;2.53;;;;;;;8.54;58.48;96421.50;4930393;29;20206;-75
2023/03/16 12:48:26;;;;;;;3.13;2.40;;;;;;;8.42;59.19;96429.81;4903583;29;20218;-79
2023/03/16 12:51:02;;;;;;;3.07;2.40;;;;;;;8.36;58.34;96438.69;4917390;29;20252;-79
2023/03/16 12:53:46;;;;;;;3.20;2.37;;;;;;;8.22;59.32;96441.84;4919366;29;20625;-81
2023/03/16 12:56:16;;;;;;;2.60;2.00;;;;;;;8.04;60.10;96416.06;4914298;29;20202;-81
2023/03/16 12:58:49;;;;;;;3.07;2.40;;;;;;;8.05;59.58;96428.94;4917658;29;20206;-80
2023/03/16 13:01:19;;;;;;;4.30;2.73;;;;;;;8.09;60.06;96437.34;4916824;29;20278;-80
2023/03/16 13:03:49;;;;;;;2.63;2.40;;;;;;;8.11;59.52;96444.13;4918609;29;20636;-81
2023/03/16 13:06:23;;;;;;;4.50;2.77;;;;;;;8.19;59.51;96446.34;4896813;29;20226;-81
2023/03/16 13:08:58;;;;;;;5.93;3.00;;;;;;;8.24;59.05;96449.56;4912929;29;20191;-83
2023/03/16 13:11:27;;;;;;;3.43;2.73;;;;;;;7.95;59.94;96443.13;4914413;29;20229;-79
2023/03/16 13:14:00;;;;;;;1.83;1.73;;;;;;;7.95;59.86;96462.91;4916418;29;20237;-81
2023/03/16 13:16:30;;;;;;;3.07;2.07;;;;;;;7.85;60.28;96453.94;4914209;29;20198;-84
2023/03/16 13:18:58;;;;;;;3.50;2.40;;;;;;;7.82;60.80;96428.28;4911392;29;20239;-78
2023/03/16 13:21:24;;;;;;;2.47;1.70;;;;;;;7.78;60.12;96470.56;4909259;29;20203;-77
2023/03/16 13:23:59;;;;;;;4.70;1.90;;;;;;;7.76;61.59;96465.47;4907089;29;20226;-76
2023/03/16 13:26:39;;;;;;;3.93;2.43;;;;;;;7.64;61.51;96478.06;4903131;29;20227;-81
2023/03/16 13:29:21;;;;;;;2.10;1.80;;;;;;;7.54;61.28;96472.47;4895620;29;20191;-82
2023/03/16 13:31:50;;;;;;;2.83;1.80;;;;;;;7.68;61.02;96485.59;4900754;29;20227;-79
2023/03/16 13:34:32;;;;;;;3.43;2.47;;;;;;;7.79;61.28;96482.56;4901952;29;20210;-75
2023/03/16 13:37:00;;;;;;;2.80;2.20;;;;;;;7.72;61.82;96491.44;4900534;29;20247;-74
2023/03/16 13:39:30;;;;;;;3.33;2.10;;;;;;;7.67;60.95;96491.63;4894059;29;20304;-76
2023/03/16 13:42:08;;;;;;;3.17;2.23;;;;;;;7.70;61.40;96490.66;4893380;29;20188;-79
2023/03/16 13:44:40;;;;;;;2.03;1.87;;;;;;;7.68;60.45;96484.75;4894113;29;20202;-81